NCAR-RAP Real-Time Weather Data

Output produced by METARs form (06 May 2021  16:50 UTC)
found at http://weather.rap.ucar.edu/surface/
 
KHVR 061553Z AUTO 08012KT 10SM CLR 12/03 A3024 RMK AO2 SLP249 T01220028
KHVR 061453Z AUTO 07008KT 10SM CLR 08/02 A3026 RMK AO2 SLP257 T00830022 53001
KHVR 061353Z AUTO 07008KT 10SM CLR 04/02 A3026 RMK AO2 SLP258 T00440017
KHVR 061253Z AUTO 06005KT 10SM CLR 01/M01 A3026 RMK AO2 SLP258 T00111006
KHVR 061153Z AUTO 00000KT 10SM CLR M01/M02 A3026 RMK AO2 SLP258 T10061022 10044 21011 57001
KHVR 061053Z AUTO 00000KT 10SM CLR 00/M02 A3026 RMK AO2 SLP258 T00001022
KHVR 060953Z AUTO 00000KT 10SM CLR 01/M01 A3026 RMK AO2 SLP258 T00111006
KHVR 060853Z AUTO 00000KT 10SM CLR 01/M01 A3026 RMK AO2 SLP259 T00111006 58004
KHVR 060753Z AUTO 02003KT 10SM CLR 02/M01 A3028 RMK AO2 SLP262 T00221006
KHVR 060653Z AUTO 19003KT 10SM CLR 02/M01 A3028 RMK AO2 SLP268 T00171006 401780011
KHVR 060553Z AUTO 08004KT 10SM CLR 03/00 A3028 RMK AO2 SLP265 T00330000 10172 20028 50009
KHVR 060453Z AUTO 12003KT 10SM CLR 06/02 A3028 RMK AO2 SLP266 T00610017
KHVR 060353Z AUTO 10SM CLR 08/02 A3028 RMK AO2 SLP263 T00780017
KHVR 060253Z AUTO 02008KT 10SM CLR 10/01 A3025 RMK AO2 SLP253 T01000006 53011